createdAt,value
2023-04-24T00:01:35.111Z,1.98
2023-04-24T00:04:02.759Z,1.80
2023-04-24T00:06:35.481Z,2.00
2023-04-24T00:09:02.212Z,1.75
2023-04-24T00:11:28.907Z,2.10
2023-04-24T00:13:55.538Z,2.10
2023-04-24T00:16:22.466Z,1.63
2023-04-24T00:18:49.089Z,1.90
2023-04-24T00:21:18.631Z,1.90
2023-04-24T00:23:45.450Z,1.98
2023-04-24T00:26:11.952Z,1.80
2023-04-24T00:28:38.556Z,1.90
2023-04-24T00:31:05.213Z,2.10
2023-04-24T00:33:31.787Z,1.73
2023-04-24T00:35:58.517Z,1.88
2023-04-24T00:38:25.421Z,1.70
2023-04-24T00:40:52.120Z,1.80
2023-04-24T00:43:18.671Z,2.30
2023-04-24T00:45:45.368Z,1.80
2023-04-24T00:48:12.128Z,1.70
2023-04-24T00:50:39.177Z,1.80
2023-04-24T00:53:05.879Z,1.90
2023-04-24T00:55:32.623Z,1.90
2023-04-24T00:57:59.217Z,1.60
2023-04-24T01:00:25.861Z,2.00
2023-04-24T01:02:52.997Z,1.92
2023-04-24T01:05:22.278Z,1.77
2023-04-24T01:07:50.037Z,1.77
2023-04-24T01:10:18.000Z,2.05
2023-04-24T01:12:45.703Z,1.98
2023-04-24T01:15:12.833Z,2.03
2023-04-24T01:17:40.285Z,1.88
2023-04-24T01:20:07.343Z,1.70
2023-04-24T01:22:35.498Z,2.00
2023-04-24T01:25:02.338Z,1.85
2023-04-24T01:27:30.466Z,1.70
2023-04-24T01:29:57.111Z,1.63
2023-04-24T01:32:23.721Z,1.67
2023-04-24T01:34:50.389Z,1.70
2023-04-24T01:37:17.729Z,1.67
2023-04-24T01:39:45.096Z,2.08
2023-04-24T01:42:11.835Z,1.65
2023-04-24T01:44:39.587Z,1.52
2023-04-24T01:47:06.393Z,1.65
2023-04-24T01:49:32.970Z,1.67
2023-04-24T01:51:59.489Z,1.35
2023-04-24T01:54:26.288Z,1.60
2023-04-24T01:56:52.902Z,1.50
2023-04-24T01:59:19.610Z,1.60
2023-04-24T02:01:46.306Z,1.60
2023-04-24T02:04:13.045Z,1.95
2023-04-24T02:06:39.648Z,1.60
2023-04-24T02:09:06.367Z,1.60
2023-04-24T02:11:32.923Z,1.75
2023-04-24T02:13:59.510Z,1.80
2023-04-24T02:16:26.904Z,1.65
2023-04-24T02:18:53.541Z,1.80
2023-04-24T02:21:20.252Z,1.50
2023-04-24T02:23:46.820Z,1.45
2023-04-24T02:26:13.591Z,1.33
2023-04-24T02:28:40.156Z,1.60
2023-04-24T02:31:07.202Z,2.00
2023-04-24T02:33:33.877Z,1.40
2023-04-24T02:36:00.683Z,1.75
2023-04-24T02:38:27.303Z,1.58
2023-04-24T02:40:53.845Z,1.70
2023-04-24T02:43:20.523Z,1.60
2023-04-24T02:45:47.248Z,1.55
2023-04-24T02:48:13.935Z,1.50
2023-04-24T02:50:40.628Z,1.60
2023-04-24T02:53:07.162Z,1.50
2023-04-24T02:55:33.664Z,1.60
2023-04-24T02:58:00.929Z,1.85
2023-04-24T03:00:27.464Z,1.50
2023-04-24T03:02:54.378Z,1.70
2023-04-24T03:05:21.170Z,1.60
2023-04-24T03:07:47.828Z,1.50
2023-04-24T03:10:14.435Z,1.60
2023-04-24T03:12:42.004Z,1.55
2023-04-24T03:15:09.197Z,1.42
2023-04-24T03:17:37.926Z,1.40
2023-04-24T03:20:06.554Z,1.60
2023-04-24T03:22:33.941Z,1.58
2023-04-24T03:25:01.725Z,1.65
2023-04-24T03:27:28.466Z,1.38
2023-04-24T03:29:59.369Z,1.38
2023-04-24T03:32:33.947Z,1.60
2023-04-24T03:35:01.787Z,1.30
2023-04-24T03:37:28.814Z,1.70
2023-04-24T03:40:11.889Z,1.50
2023-04-24T03:42:39.550Z,1.40
2023-04-24T03:45:07.297Z,1.73
2023-04-24T03:47:36.676Z,1.27
2023-04-24T03:50:05.684Z,1.52
2023-04-24T03:52:33.928Z,1.50
2023-04-24T03:55:00.945Z,1.48
2023-04-24T03:57:28.905Z,1.60
2023-04-24T04:00:10.957Z,1.48
2023-04-24T04:02:41.364Z,1.50
2023-04-24T04:05:09.421Z,1.50
2023-04-24T04:07:36.061Z,1.30
2023-04-24T04:10:03.274Z,1.40
2023-04-24T04:12:30.169Z,1.40
2023-04-24T04:14:56.962Z,1.45
2023-04-24T04:17:24.107Z,1.35
2023-04-24T04:19:51.646Z,1.50
2023-04-24T04:22:18.717Z,1.40
2023-04-24T04:24:48.782Z,1.40
2023-04-24T04:27:17.570Z,1.10
2023-04-24T04:29:51.072Z,1.38
2023-04-24T04:32:17.752Z,1.20
2023-04-24T04:34:46.203Z,1.60
2023-04-24T04:37:13.485Z,1.30
2023-04-24T04:39:46.980Z,1.00
2023-04-24T04:42:19.955Z,1.33
2023-04-24T04:44:47.190Z,1.30
2023-04-24T04:47:18.369Z,1.20
2023-04-24T04:49:45.750Z,1.20
2023-04-24T04:52:19.426Z,1.55
2023-04-24T04:54:49.637Z,1.30
2023-04-24T04:57:16.624Z,1.20
2023-04-24T04:59:43.541Z,1.40
2023-04-24T05:02:17.100Z,1.55
2023-04-24T05:04:44.091Z,1.30
2023-04-24T05:07:10.994Z,1.20
2023-04-24T05:09:40.971Z,1.45
2023-04-24T05:12:08.516Z,1.20
2023-04-24T05:14:41.783Z,1.25
2023-04-24T05:17:11.460Z,1.30
2023-04-24T05:19:39.674Z,1.27
2023-04-24T05:22:07.970Z,1.10
2023-04-24T05:24:39.850Z,1.30
2023-04-24T05:27:28.576Z,1.20
2023-04-24T05:29:55.418Z,1.35
2023-04-24T05:32:22.010Z,1.30
2023-04-24T05:34:48.742Z,1.30
2023-04-24T05:37:15.385Z,1.20
2023-04-24T05:39:42.860Z,1.10
2023-04-24T05:42:09.618Z,1.30
2023-04-24T05:44:36.176Z,1.25
2023-04-24T05:47:03.061Z,1.30
2023-04-24T05:49:29.701Z,1.38
2023-04-24T05:51:58.438Z,1.20
2023-04-24T05:54:25.040Z,1.30
2023-04-24T05:56:52.290Z,1.17
2023-04-24T05:59:28.894Z,1.20
2023-04-24T06:01:55.511Z,1.05
2023-04-24T06:04:25.788Z,1.15
2023-04-24T06:06:56.682Z,1.30
2023-04-24T06:09:23.711Z,1.30
2023-04-24T06:11:51.377Z,1.30
2023-04-24T06:14:18.248Z,1.13
2023-04-24T06:17:07.628Z,1.20
2023-04-24T06:19:38.435Z,1.15
2023-04-24T06:22:05.253Z,1.13
2023-04-24T06:24:32.002Z,1.30
2023-04-24T06:26:59.946Z,1.13
2023-04-24T06:29:26.520Z,1.17
2023-04-24T06:31:53.067Z,1.17
2023-04-24T06:34:19.699Z,1.20
2023-04-24T06:36:47.726Z,1.00
2023-04-24T06:39:14.285Z,1.20
2023-04-24T06:41:41.008Z,0.90
2023-04-24T06:44:16.236Z,1.00
2023-04-24T06:46:42.891Z,1.30
2023-04-24T06:49:09.421Z,1.20
2023-04-24T06:51:36.060Z,1.00
2023-04-24T06:54:02.952Z,1.17
2023-04-24T06:56:30.469Z,1.10
2023-04-24T06:58:57.107Z,0.93
2023-04-24T07:01:24.005Z,1.00
2023-04-24T07:03:50.843Z,1.05
2023-04-24T07:06:19.493Z,1.00
2023-04-24T07:08:46.064Z,1.30
2023-04-24T07:11:12.578Z,1.08
2023-04-24T07:13:42.808Z,1.05
2023-04-24T07:16:09.737Z,1.20
2023-04-24T07:18:37.452Z,1.00
2023-04-24T07:21:04.081Z,1.10
2023-04-24T07:23:31.722Z,1.10
2023-04-24T07:25:58.556Z,1.17
2023-04-24T07:28:25.630Z,1.75
2023-04-24T07:30:54.941Z,1.70
2023-04-24T07:33:21.756Z,1.58
2023-04-24T07:35:48.417Z,1.33
2023-04-24T07:38:15.204Z,1.23
2023-04-24T07:40:41.815Z,1.05
2023-04-24T07:43:08.475Z,0.90
2023-04-24T07:45:38.302Z,1.10
2023-04-24T07:48:05.235Z,1.13
2023-04-24T07:50:31.887Z,1.10
2023-04-24T07:52:58.495Z,1.10
2023-04-24T07:55:27.870Z,1.10
2023-04-24T07:57:55.078Z,1.00
2023-04-24T08:00:21.891Z,1.10
2023-04-24T08:02:48.804Z,0.90
2023-04-24T08:05:15.816Z,1.00
2023-04-24T08:07:43.578Z,0.95
2023-04-24T08:10:13.418Z,1.10
2023-04-24T08:12:40.073Z,1.00
2023-04-24T08:15:07.166Z,1.10
2023-04-24T08:17:35.527Z,0.80
2023-04-24T08:20:03.449Z,0.85
2023-04-24T08:22:30.070Z,0.90
2023-04-24T08:24:57.930Z,1.00
2023-04-24T08:27:24.768Z,1.10
2023-04-24T08:29:51.446Z,1.10
2023-04-24T08:32:18.080Z,0.90
2023-04-24T08:34:44.671Z,0.90
2023-04-24T08:37:11.479Z,1.08
2023-04-24T08:39:38.449Z,0.90
2023-04-24T08:42:08.785Z,0.90
2023-04-24T08:44:36.309Z,0.90
2023-04-24T08:47:03.180Z,0.90
2023-04-24T08:49:30.130Z,0.90
2023-04-24T08:51:56.775Z,0.90
2023-04-24T08:54:23.412Z,1.00
2023-04-24T08:56:49.999Z,1.00
2023-04-24T08:59:16.741Z,1.00
2023-04-24T09:01:43.301Z,0.90
2023-04-24T09:04:14.395Z,1.10
2023-04-24T09:06:41.233Z,0.80
2023-04-24T09:09:07.794Z,1.00
2023-04-24T09:11:34.401Z,1.00
2023-04-24T09:14:01.008Z,0.90
2023-04-24T09:16:27.762Z,0.80
2023-04-24T09:18:54.507Z,0.80
2023-04-24T09:21:22.085Z,1.00
2023-04-24T09:23:48.728Z,1.00
2023-04-24T09:26:15.886Z,1.00
2023-04-24T09:28:42.956Z,1.08
2023-04-24T09:31:10.347Z,1.08
2023-04-24T09:33:37.485Z,1.00
2023-04-24T09:36:04.261Z,1.00
2023-04-24T09:38:35.004Z,0.85
2023-04-24T09:41:08.296Z,1.20
2023-04-24T09:43:35.231Z,0.75
2023-04-24T09:46:06.255Z,0.90
2023-04-24T09:48:38.049Z,0.90
2023-04-24T09:51:08.058Z,0.95
2023-04-24T09:53:34.709Z,1.00
2023-04-24T09:56:11.043Z,0.90
2023-04-24T09:58:37.666Z,0.88
2023-04-24T10:01:04.502Z,1.00
2023-04-24T10:03:31.764Z,1.10
2023-04-24T10:06:09.717Z,0.93
2023-04-24T10:08:37.294Z,1.02
2023-04-24T10:11:03.919Z,1.17
2023-04-24T10:13:30.556Z,1.10
2023-04-24T10:15:57.588Z,0.93
2023-04-24T10:18:24.186Z,0.90
2023-04-24T10:20:50.843Z,1.10
2023-04-24T10:23:20.263Z,1.00
2023-04-24T10:25:46.952Z,0.90
2023-04-24T10:28:13.501Z,0.88
2023-04-24T10:30:40.234Z,0.90
2023-04-24T10:33:08.409Z,0.93
2023-04-24T10:35:36.970Z,0.90
2023-04-24T10:38:06.803Z,1.20
2023-04-24T10:40:34.958Z,1.15
2023-04-24T10:43:09.282Z,0.90
2023-04-24T10:45:35.912Z,0.90
2023-04-24T10:48:07.113Z,1.00
2023-04-24T10:50:43.720Z,0.88
2023-04-24T10:53:18.162Z,0.90
2023-04-24T10:55:49.606Z,1.17
2023-04-24T10:58:17.757Z,0.88
2023-04-24T11:00:45.925Z,0.80
2023-04-24T11:03:35.332Z,0.75
2023-04-24T11:06:03.120Z,0.80
2023-04-24T11:08:39.918Z,0.85
2023-04-24T11:11:16.918Z,0.98
2023-04-24T11:13:55.906Z,0.90
2023-04-24T11:16:31.357Z,1.02
2023-04-24T11:19:17.386Z,1.00
2023-04-24T11:22:04.170Z,0.85
2023-04-24T11:24:36.846Z,0.73
2023-04-24T11:27:03.696Z,0.88
2023-04-24T11:29:46.173Z,0.90
2023-04-24T11:32:32.346Z,1.38
2023-04-24T11:35:00.409Z,1.90
2023-04-24T11:37:34.303Z,1.65
2023-04-24T11:40:01.533Z,1.75
2023-04-24T11:42:29.038Z,1.50
2023-04-24T11:45:01.335Z,1.83
2023-04-24T11:47:32.438Z,1.63
2023-04-24T11:49:59.628Z,2.90
2023-04-24T11:52:27.079Z,1.90
2023-04-24T11:54:53.695Z,1.58
2023-04-24T11:57:22.913Z,1.70
2023-04-24T11:59:49.857Z,1.75
2023-04-24T12:02:26.437Z,1.70
2023-04-24T12:04:54.195Z,1.67
2023-04-24T12:07:21.442Z,2.60
2023-04-24T12:09:57.125Z,1.92
2023-04-24T12:12:26.520Z,2.28
2023-04-24T12:14:57.500Z,2.00
2023-04-24T12:17:32.433Z,1.73
2023-04-24T12:20:06.432Z,1.60
2023-04-24T12:22:47.276Z,1.60
2023-04-24T12:25:14.608Z,1.35
2023-04-24T12:27:41.342Z,2.47
2023-04-24T12:30:12.196Z,1.92
2023-04-24T12:32:45.930Z,1.50
2023-04-24T12:35:12.681Z,1.55
2023-04-24T12:37:40.553Z,1.52
2023-04-24T12:40:09.288Z,1.60
2023-04-24T12:42:36.528Z,1.30
2023-04-24T12:45:07.077Z,1.40
2023-04-24T12:47:34.092Z,1.42
2023-04-24T12:50:00.924Z,1.67
2023-04-24T12:52:28.468Z,1.73
2023-04-24T12:54:56.090Z,1.80
2023-04-24T12:57:23.541Z,1.48
2023-04-24T12:59:50.174Z,1.52
2023-04-24T13:02:18.640Z,1.40
2023-04-24T13:04:47.302Z,1.58
2023-04-24T13:07:15.122Z,1.45
2023-04-24T13:09:44.917Z,1.35
2023-04-24T13:12:11.721Z,1.50
2023-04-24T13:14:38.540Z,1.40
2023-04-24T13:17:05.449Z,1.50
2023-04-24T13:19:37.433Z,1.40
2023-04-24T13:22:04.336Z,1.33
2023-04-24T13:24:32.157Z,1.77
2023-04-24T13:26:59.441Z,1.30
2023-04-24T13:29:26.083Z,1.50
2023-04-24T13:31:52.843Z,1.50
2023-04-24T13:34:19.541Z,1.50
2023-04-24T13:36:46.211Z,1.40
2023-04-24T13:39:13.084Z,1.60
2023-04-24T13:41:39.746Z,1.50
2023-04-24T13:44:06.940Z,1.58
2023-04-24T13:46:33.655Z,1.60
2023-04-24T13:49:00.399Z,1.42
2023-04-24T13:51:30.130Z,1.40
2023-04-24T13:53:56.888Z,1.30
2023-04-24T13:56:23.573Z,1.30
2023-04-24T13:58:50.312Z,1.63
2023-04-24T14:01:17.230Z,1.33
2023-04-24T14:03:47.168Z,1.50
2023-04-24T14:06:14.151Z,1.50
2023-04-24T14:08:41.225Z,1.40
2023-04-24T14:11:08.060Z,1.40
2023-04-24T14:13:34.715Z,1.20
2023-04-24T14:16:01.453Z,1.40
2023-04-24T14:18:28.189Z,1.40
2023-04-24T14:20:54.876Z,1.25
2023-04-24T14:23:21.564Z,1.30
2023-04-24T14:25:51.888Z,1.27
2023-04-24T14:28:19.536Z,1.50
2023-04-24T14:30:46.212Z,1.30
2023-04-24T14:33:13.781Z,1.40
2023-04-24T14:35:41.275Z,1.42
2023-04-24T14:38:07.895Z,1.50
2023-04-24T14:43:04.231Z,1.50
2023-04-24T14:45:30.897Z,1.40
2023-04-24T14:47:58.556Z,1.58
2023-04-24T14:50:28.839Z,1.50
2023-04-24T14:52:58.484Z,1.45
2023-04-24T14:55:26.181Z,1.40
2023-04-24T14:57:52.907Z,1.60
2023-04-24T15:00:21.130Z,1.50
2023-04-24T15:02:47.983Z,1.30
2023-04-24T15:05:14.970Z,1.50
2023-04-24T15:07:42.709Z,1.40
2023-04-24T15:10:09.744Z,1.40
2023-04-24T15:12:36.391Z,1.50
2023-04-24T15:15:03.217Z,1.48
2023-04-24T15:17:29.833Z,1.77
2023-04-24T15:19:56.808Z,1.45
2023-04-24T15:22:23.541Z,1.60
2023-04-24T15:24:50.146Z,1.38
2023-04-24T15:27:16.864Z,1.50
2023-04-24T15:29:43.620Z,1.50
2023-04-24T15:32:10.582Z,1.45
2023-04-24T15:34:37.756Z,1.50
2023-04-24T15:37:04.493Z,1.50
2023-04-24T15:39:31.377Z,1.73
2023-04-24T15:41:58.026Z,1.70
2023-04-24T15:44:24.814Z,1.33
2023-04-24T15:46:52.383Z,1.90
2023-04-24T15:49:19.517Z,1.60
2023-04-24T15:51:46.242Z,1.80
2023-04-24T15:54:12.904Z,1.80
2023-04-24T15:56:39.487Z,1.80
2023-04-24T15:59:06.279Z,1.90
2023-04-24T16:01:33.854Z,1.52
2023-04-24T16:04:00.906Z,1.50
2023-04-24T16:06:27.866Z,1.50
2023-04-24T16:08:55.480Z,1.67
2023-04-24T16:11:23.950Z,1.60
2023-04-24T16:13:50.961Z,1.77
2023-04-24T16:16:17.851Z,1.40
2023-04-24T16:18:44.567Z,1.30
2023-04-24T16:21:11.242Z,1.27
2023-04-24T16:23:37.897Z,1.48
2023-04-24T16:26:04.604Z,1.27
2023-04-24T16:28:31.337Z,1.40
2023-04-24T16:30:58.190Z,1.58
2023-04-24T16:33:26.517Z,1.38
2023-04-24T16:35:53.400Z,1.33
2023-04-24T16:38:20.120Z,1.60
2023-04-24T16:40:46.821Z,1.60
2023-04-24T16:43:13.539Z,1.30
2023-04-24T16:45:40.259Z,1.50
2023-04-24T16:48:07.805Z,1.60
2023-04-24T16:50:34.523Z,1.50
2023-04-24T16:53:01.251Z,1.40
2023-04-24T16:55:27.978Z,1.30
2023-04-24T16:57:54.709Z,1.30
2023-04-24T17:00:21.471Z,1.50
2023-04-24T17:02:50.339Z,1.30
2023-04-24T17:05:19.292Z,1.27
2023-04-24T17:07:45.992Z,1.40
2023-04-24T17:10:12.675Z,1.30
2023-04-24T17:12:39.330Z,1.40
2023-04-24T17:15:06.731Z,1.38
2023-04-24T17:17:33.428Z,1.30
2023-04-24T17:20:01.613Z,1.50
2023-04-24T17:22:32.577Z,1.55
2023-04-24T17:24:59.238Z,1.30
2023-04-24T17:27:25.916Z,1.20
2023-04-24T17:29:52.769Z,1.40
2023-04-24T17:32:19.581Z,1.23
2023-04-24T17:34:47.715Z,1.70
2023-04-24T17:37:14.361Z,1.48
2023-04-24T17:39:41.201Z,1.50
2023-04-24T17:42:07.857Z,1.30
2023-04-24T17:44:34.701Z,1.20
2023-04-24T17:47:01.433Z,1.30
2023-04-24T17:49:28.198Z,1.48
2023-04-24T17:51:54.904Z,1.20
2023-04-24T17:54:21.716Z,1.25
2023-04-24T17:56:48.409Z,1.40
2023-04-24T17:59:16.417Z,1.42
2023-04-24T18:01:43.203Z,1.40
2023-04-24T18:04:10.509Z,1.15
2023-04-24T18:06:37.336Z,1.40
2023-04-24T18:09:04.075Z,1.50
2023-04-24T18:11:30.718Z,1.40
2023-04-24T18:13:57.386Z,1.70
2023-04-24T18:16:25.697Z,1.40
2023-04-24T18:18:53.977Z,1.40
2023-04-24T18:21:20.778Z,1.25
2023-04-24T18:23:47.487Z,1.20
2023-04-24T18:26:18.549Z,1.20
2023-04-24T18:28:45.226Z,1.42
2023-04-24T18:31:11.914Z,1.17
2023-04-24T18:33:38.577Z,1.40
2023-04-24T18:36:05.322Z,1.30
2023-04-24T18:38:32.247Z,1.20
2023-04-24T18:40:58.985Z,1.40
2023-04-24T18:43:25.900Z,1.15
2023-04-24T18:45:52.496Z,1.00
2023-04-24T18:48:19.426Z,1.20
2023-04-24T18:50:46.216Z,1.33
2023-04-24T18:53:15.262Z,1.30
2023-04-24T18:55:41.942Z,1.20
2023-04-24T18:58:08.561Z,1.17
2023-04-24T19:00:35.280Z,1.42
2023-04-24T19:03:02.501Z,1.27
2023-04-24T19:05:29.279Z,1.13
2023-04-24T19:07:55.910Z,1.10
2023-04-24T19:10:22.679Z,1.10
2023-04-24T19:12:56.193Z,1.30
2023-04-24T19:15:25.881Z,1.10
2023-04-24T19:17:52.707Z,1.38
2023-04-24T19:20:19.524Z,1.15
2023-04-24T19:22:46.774Z,1.23
2023-04-24T19:25:13.599Z,1.20
2023-04-24T19:27:40.402Z,1.33
2023-04-24T19:30:07.674Z,1.23
2023-04-24T19:32:34.554Z,1.20
2023-04-24T19:35:01.262Z,1.30
2023-04-24T19:37:27.876Z,1.00
2023-04-24T19:39:54.505Z,1.30
2023-04-24T19:42:28.416Z,1.00
2023-04-24T19:44:58.949Z,1.17
2023-04-24T19:47:26.384Z,1.15
2023-04-24T19:49:53.209Z,1.13
2023-04-24T19:52:21.435Z,1.15
2023-04-24T19:54:48.264Z,1.10
2023-04-24T19:57:14.995Z,1.30
2023-04-24T19:59:41.679Z,1.20
2023-04-24T20:02:08.920Z,1.20
2023-04-24T20:04:35.852Z,1.10
2023-04-24T20:07:02.693Z,1.10
2023-04-24T20:09:31.282Z,1.27
2023-04-24T20:11:59.619Z,1.13
2023-04-24T20:14:26.307Z,1.13
2023-04-24T20:16:54.343Z,1.23
2023-04-24T20:19:21.951Z,1.10
2023-04-24T20:21:48.529Z,1.20
2023-04-24T20:24:16.291Z,0.90
2023-04-24T20:26:43.160Z,1.38
2023-04-24T20:29:10.602Z,1.35
2023-04-24T20:31:37.412Z,1.13
2023-04-24T20:34:04.242Z,1.10
2023-04-24T20:36:30.957Z,1.20
2023-04-24T20:38:58.254Z,1.00
2023-04-24T20:41:24.925Z,1.10
2023-04-24T20:43:53.089Z,1.02
2023-04-24T20:46:19.724Z,1.30
2023-04-24T20:48:46.693Z,1.00
2023-04-24T20:51:13.754Z,1.10
2023-04-24T20:53:40.386Z,1.00
2023-04-24T20:56:08.894Z,1.08
2023-04-24T20:58:35.515Z,1.17
2023-04-24T21:01:02.119Z,1.08
2023-04-24T21:03:28.909Z,1.00
2023-04-24T21:05:55.574Z,1.25
2023-04-24T21:08:22.306Z,1.00
2023-04-24T21:10:48.849Z,1.10
2023-04-24T21:13:15.496Z,1.20
2023-04-24T21:15:42.107Z,1.00
2023-04-24T21:18:08.862Z,1.00
2023-04-24T21:20:35.577Z,1.00
2023-04-24T21:23:02.150Z,1.20
2023-04-24T21:25:28.695Z,1.10
2023-04-24T21:27:56.236Z,1.00
2023-04-24T21:30:22.945Z,1.02
2023-04-24T21:32:49.709Z,1.10
2023-04-24T21:35:16.416Z,1.00
2023-04-24T21:37:43.127Z,1.15
2023-04-24T21:40:11.376Z,1.02
2023-04-24T21:42:38.550Z,1.02
2023-04-24T21:45:05.730Z,1.10
2023-04-24T21:47:32.355Z,1.00
2023-04-24T21:49:58.962Z,1.00
2023-04-24T21:52:25.600Z,1.00
2023-04-24T21:54:52.177Z,1.10
2023-04-24T21:57:18.753Z,0.90
2023-04-24T21:59:45.588Z,1.33
2023-04-24T22:02:12.425Z,1.00
2023-04-24T22:04:39.254Z,1.08
2023-04-24T22:07:06.021Z,1.10
2023-04-24T22:09:32.626Z,1.00
2023-04-24T22:11:59.217Z,1.10
2023-04-24T22:14:26.478Z,1.23
2023-04-24T22:16:53.104Z,1.10
2023-04-24T22:19:19.710Z,0.90
2023-04-24T22:21:46.326Z,1.00
2023-04-24T22:24:12.891Z,1.02
2023-04-24T22:26:39.527Z,1.15
2023-04-24T22:29:06.308Z,1.17
2023-04-24T22:31:33.040Z,0.95
2023-04-24T22:33:59.644Z,1.08
2023-04-24T22:36:26.580Z,1.13
2023-04-24T22:38:53.147Z,1.20
2023-04-24T22:41:19.711Z,0.98
2023-04-24T22:43:46.484Z,1.02
2023-04-24T22:46:13.203Z,1.15
2023-04-24T22:48:40.161Z,0.80
2023-04-24T22:51:06.746Z,1.10
2023-04-24T22:53:33.382Z,0.90
2023-04-24T22:56:00.090Z,1.10
2023-04-24T22:58:26.813Z,0.95
2023-04-24T23:00:53.470Z,0.90
2023-04-24T23:03:20.585Z,1.00
2023-04-24T23:05:47.446Z,1.05
2023-04-24T23:08:13.982Z,0.88
2023-04-24T23:10:40.712Z,0.90
2023-04-24T23:13:07.376Z,0.90
2023-04-24T23:15:34.603Z,1.00
2023-04-24T23:18:01.385Z,1.10
2023-04-24T23:20:27.990Z,1.00
2023-04-24T23:22:54.538Z,1.00
2023-04-24T23:25:21.089Z,1.08
2023-04-24T23:27:47.657Z,0.90
2023-04-24T23:30:14.219Z,1.17
2023-04-24T23:32:40.854Z,1.00
2023-04-24T23:35:08.872Z,0.88
2023-04-24T23:37:36.241Z,0.80
2023-04-24T23:40:02.778Z,0.80
2023-04-24T23:42:29.279Z,1.10
2023-04-24T23:44:55.854Z,0.90
2023-04-24T23:47:22.381Z,0.90
2023-04-24T23:49:48.966Z,0.90
2023-04-24T23:52:15.576Z,0.98
2023-04-24T23:54:42.196Z,1.00
2023-04-24T23:57:09.013Z,1.00
2023-04-24T23:59:35.662Z,0.98
